Terminal Aerodrome Forecast
Issued by NWS

Home | Current Version | Previous Version | Text Only | Print | Product List | Glossary On
Versions: 1 2 3 4 5 6 7 8 9 10 11 12 13 14 15 16
000
FTUS44 KMAF 230539
TAFINK
TAF
KINK 230539Z 2306/2406 14015G25KT P6SM SCT200
     FM231200 14016G26KT P6SM BKN250
     FM231900 19025G35KT P6SM SCT080 SCT250
     FM240100 27014G24KT P6SM SCT200
      AMD NOT SKED=

USA.gov is the U.S. government's official web portal to all federal, state and local government web resources and services.